Phillipsburg, Missouri
Current Conditions -  °F | °C
As of 11:35 PM on Thursday 27 Nov 2014 (Local Time) from KH21 Reporting Station
Clear Clear  
Wind Chill: -5°   Ceiling: Unl
Heat Index: -2°   Visibility: 10mi
Dew Point: -5°   Wind: 5mph
Humidity: 80%   Direction: 120°ESE
Pressure: 30.33"   Gusts: NA
Location:  37.55°N, 92.78°W
Report Text: KH21 280535Z AUTO 12004KT 10SM CLR M02/M05 A3033 RMK AO2
Loading
Personal Weather Stations






























Interactive Weather Map New forecast layout! Learn more

10-Day Weather Forecast

Advertisements
Track Severe Weather on mobile